Terminal Aerodrome Forecast
Issued by NWS Detroit/Pontiac, MI

Home | Current Version | Previous Version | Text Only | Print | Product List | Glossary On
Versions: 1 2 3 4 5 6 7 8 9 10 11 12 13 14 15 16 17 18 19 20 21 22
001
FTUS43 KDTX 202320
TAFFNT
TAF
KFNT 202320Z 2100/2124 VRB03KT 1/4SM FG VV002
      TEMPO 2100/2102 3/4SM BR OVC003
     FM211500 17008KT 1SM BR OVC002
     FM211700 18008KT 3SM BR OVC006
     FM212000 18008KT 5SM BR BKN010 OVC020=

USA.gov is the U.S. government's official web portal to all federal, state and local government web resources and services.